Time;durP1;ratioP1;P1;durP2;ratioP2;P2;SDS_P1;SDS_P2;PMS_P1;PMS_P2;Temp;Humidity;BMP_temperature;BMP_pressure;BME280_temperature;BME280_humidity;BME280_pressure;Samples;Min_cycle;Max_cycle;Signal;HPM_P1;HPM_P2
2021/11/21 00:00:42;;;;;;;29.55;12.40;;;;;;;;;;5006666;28;20048;-56
2021/11/21 00:03:08;;;;;;;27.17;11.93;;;;;;;;;;5002559;28;20104;-57
2021/11/21 00:05:40;;;;;;;25.27;11.57;;;;;;;;;;5009807;28;20044;-58
2021/11/21 00:08:06;;;;;;;24.10;11.63;;;;;;;;;;5036856;28;20053;-52
2021/11/21 00:10:34;;;;;;;24.05;10.60;;;;;;;;;;5045889;28;20110;-57
2021/11/21 00:13:01;;;;;;;27.83;11.63;;;;;;;;;;5005845;28;20042;-58
2021/11/21 00:15:27;;;;;;;24.10;11.15;;;;;;;;;;4986808;28;20062;-58
2021/11/21 00:17:55;;;;;;;25.25;11.90;;;;;;;;;;4993286;28;20038;-57
2021/11/21 00:20:22;;;;;;;22.20;11.07;;;;;;;;;;5004817;28;20044;-59
2021/11/21 00:22:49;;;;;;;22.58;10.40;;;;;;;;;;5020170;28;20042;-58
2021/11/21 00:25:15;;;;;;;24.75;11.15;;;;;;;;;;5005459;28;20057;-58
2021/11/21 00:27:42;;;;;;;27.80;11.80;;;;;;;;;;4999260;28;20102;-58
2021/11/21 00:30:09;;;;;;;27.65;11.25;;;;;;;;;;4988002;28;20030;-59
2021/11/21 00:32:36;;;;;;;25.00;11.77;;;;;;;;;;4984267;28;20101;-58
2021/11/21 00:35:04;;;;;;;26.63;11.55;;;;;;;;;;5024925;28;20049;-59
2021/11/21 00:37:31;;;;;;;27.67;12.40;;;;;;;;;;5023289;28;20052;-53
2021/11/21 00:39:59;;;;;;;25.65;11.63;;;;;;;;;;4992711;28;20042;-57
2021/11/21 00:42:26;;;;;;;24.95;11.90;;;;;;;;;;4991108;28;20038;-59
2021/11/21 00:44:52;;;;;;;24.25;11.35;;;;;;;;;;5007670;28;20041;-56
2021/11/21 00:47:19;;;;;;;28.30;12.32;;;;;;;;;;5006228;28;20034;-54
2021/11/21 00:49:46;;;;;;;21.80;10.80;;;;;;;;;;5016712;28;20060;-53
2021/11/21 00:52:14;;;;;;;27.00;12.07;;;;;;;;;;5043735;28;20056;-57
2021/11/21 00:54:48;;;;;;;26.55;12.30;;;;;;;;;;5021897;28;20122;-56
2021/11/21 00:57:15;;;;;;;28.80;11.88;;;;;;;;;;5005489;28;20053;-54
2021/11/21 00:59:45;;;;;;;26.23;11.77;;;;;;;;;;5011824;28;20033;-57
2021/11/21 01:02:14;;;;;;;26.42;11.98;;;;;;;;;;5024015;28;20025;-56
2021/11/21 01:04:42;;;;;;;27.52;11.48;;;;;;;;;;5011674;28;20036;-56
2021/11/21 01:07:10;;;;;;;22.75;10.80;;;;;;;;;;5004510;28;20034;-56
2021/11/21 01:09:38;;;;;;;24.30;10.13;;;;;;;;;;5001388;28;20046;-53
2021/11/21 01:12:05;;;;;;;20.38;9.50;;;;;;;;;;5012059;28;20045;-53
2021/11/21 01:14:32;;;;;;;21.10;9.88;;;;;;;;;;5019450;28;20072;-57
2021/11/21 01:16:59;;;;;;;22.25;9.55;;;;;;;;;;5025688;28;20110;-57
2021/11/21 01:19:26;;;;;;;22.50;10.77;;;;;;;;;;5021582;28;20059;-56
2021/11/21 01:21:52;;;;;;;22.65;10.85;;;;;;;;;;5025419;28;20047;-57
2021/11/21 01:24:19;;;;;;;23.52;10.77;;;;;;;;;;5023612;28;20034;-57
2021/11/21 01:26:47;;;;;;;22.83;9.65;;;;;;;;;;5021557;28;20056;-54
2021/11/21 01:29:13;;;;;;;22.45;10.18;;;;;;;;;;5025219;28;20029;-57
2021/11/21 01:31:41;;;;;;;24.10;11.52;;;;;;;;;;5004259;28;20089;-57
2021/11/21 01:34:08;;;;;;;22.43;10.50;;;;;;;;;;5019676;28;20052;-55
2021/11/21 01:36:34;;;;;;;28.58;12.23;;;;;;;;;;5022772;28;20274;-55
2021/11/21 01:39:01;;;;;;;26.77;11.75;;;;;;;;;;5026271;28;20038;-56
2021/11/21 01:41:27;;;;;;;26.05;11.77;;;;;;;;;;5021301;28;20037;-53
2021/11/21 01:43:55;;;;;;;32.30;12.75;;;;;;;;;;5042452;28;20155;-56
2021/11/21 01:46:30;;;;;;;24.10;11.13;;;;;;;;;;5018159;28;20123;-54
2021/11/21 01:48:57;;;;;;;25.92;10.40;;;;;;;;;;5020971;28;20092;-56
2021/11/21 01:51:23;;;;;;;28.00;11.75;;;;;;;;;;5026773;28;20139;-55
2021/11/21 01:53:50;;;;;;;26.52;11.82;;;;;;;;;;5026297;28;20041;-54
2021/11/21 01:56:16;;;;;;;25.80;11.50;;;;;;;;;;5004246;28;20060;-56
2021/11/21 01:58:44;;;;;;;27.08;12.77;;;;;;;;;;5027891;28;20037;-54
2021/11/21 02:01:11;;;;;;;30.25;12.88;;;;;;;;;;5023276;28;20135;-56
2021/11/21 02:03:38;;;;;;;25.67;11.93;;;;;;;;;;5008517;28;20111;-56
2021/11/21 02:06:05;;;;;;;31.13;12.82;;;;;;;;;;5004420;28;20042;-52
2021/11/21 02:08:31;;;;;;;27.00;11.95;;;;;;;;;;5006490;28;20045;-58
2021/11/21 02:10:59;;;;;;;26.67;11.52;;;;;;;;;;5005742;28;20126;-57
2021/11/21 02:13:26;;;;;;;30.00;13.00;;;;;;;;;;5005517;28;20041;-57
2021/11/21 02:15:52;;;;;;;25.00;10.85;;;;;;;;;;5006970;28;20106;-56
2021/11/21 02:18:21;;;;;;;25.75;11.40;;;;;;;;;;5004450;28;20037;-57
2021/11/21 02:20:53;;;;;;;22.58;10.60;;;;;;;;;;5023519;28;20029;-57
2021/11/21 02:23:20;;;;;;;27.90;12.30;;;;;;;;;;5015791;28;20054;-55
2021/11/21 02:25:47;;;;;;;26.38;11.80;;;;;;;;;;5006796;28;20054;-57
2021/11/21 02:28:13;;;;;;;29.77;12.25;;;;;;;;;;5004483;28;20037;-57
2021/11/21 02:30:40;;;;;;;33.25;13.13;;;;;;;;;;5007282;28;20037;-56
2021/11/21 02:33:11;;;;;;;27.67;12.52;;;;;;;;;;5007671;28;20041;-55
2021/11/21 02:35:38;;;;;;;26.10;11.80;;;;;;;;;;5028336;28;20069;-57
2021/11/21 02:38:06;;;;;;;30.63;12.88;;;;;;;;;;5016463;28;20046;-56
2021/11/21 02:40:33;;;;;;;25.17;10.70;;;;;;;;;;5024856;28;20128;-55
2021/11/21 02:43:01;;;;;;;24.17;11.02;;;;;;;;;;5008478;28;20053;-57
2021/11/21 02:45:27;;;;;;;30.33;11.93;;;;;;;;;;5027595;28;20048;-57
2021/11/21 02:47:54;;;;;;;26.80;11.88;;;;;;;;;;5020129;28;20061;-57
2021/11/21 02:50:22;;;;;;;29.73;13.05;;;;;;;;;;5006836;28;20034;-55
2021/11/21 02:52:49;;;;;;;28.83;12.45;;;;;;;;;;5004317;28;20045;-57
2021/11/21 02:55:17;;;;;;;28.33;12.13;;;;;;;;;;5006906;28;20045;-56
2021/11/21 02:57:44;;;;;;;31.27;13.13;;;;;;;;;;5007389;28;20127;-55
2021/11/21 03:03:24;;;;;;;29.67;13.20;;;;;;;;;;5008099;23;20067;-55
2021/11/21 03:05:51;;;;;;;28.75;11.95;;;;;;;;;;4969899;28;20113;-55
2021/11/21 03:08:23;;;;;;;34.47;14.10;;;;;;;;;;4984762;28;20045;-55
2021/11/21 03:10:51;;;;;;;34.22;13.73;;;;;;;;;;4983329;28;20026;-56
2021/11/21 03:13:18;;;;;;;32.92;13.23;;;;;;;;;;5000301;28;20127;-55
2021/11/21 03:15:46;;;;;;;31.27;12.88;;;;;;;;;;4983349;28;20053;-56
2021/11/21 03:18:14;;;;;;;31.23;13.70;;;;;;;;;;4990097;28;20038;-53
2021/11/21 03:20:41;;;;;;;33.72;13.55;;;;;;;;;;4982288;28;20074;-56
2021/11/21 03:23:08;;;;;;;33.38;13.65;;;;;;;;;;4988224;28;20022;-55
2021/11/21 03:25:35;;;;;;;36.70;14.73;;;;;;;;;;4986048;28;20062;-55
2021/11/21 03:28:04;;;;;;;28.63;11.82;;;;;;;;;;4987753;28;20046;-53
2021/11/21 03:30:30;;;;;;;27.92;12.60;;;;;;;;;;4987433;28;20038;-54
2021/11/21 03:32:57;;;;;;;34.15;14.10;;;;;;;;;;4986165;28;20033;-55
2021/11/21 03:35:24;;;;;;;32.00;12.35;;;;;;;;;;5006826;28;20042;-56
2021/11/21 03:37:51;;;;;;;30.42;12.40;;;;;;;;;;4991615;28;20057;-57
2021/11/21 03:40:19;;;;;;;30.15;12.38;;;;;;;;;;4988752;28;20044;-56
2021/11/21 03:42:46;;;;;;;27.88;11.95;;;;;;;;;;4984290;28;20066;-57
2021/11/21 03:45:15;;;;;;;29.25;11.73;;;;;;;;;;4989039;28;20045;-55
2021/11/21 03:47:42;;;;;;;35.70;13.45;;;;;;;;;;5003520;28;20034;-56
2021/11/21 03:50:12;;;;;;;32.30;13.23;;;;;;;;;;4985157;28;20046;-55
2021/11/21 03:52:39;;;;;;;32.53;13.63;;;;;;;;;;4988600;28;20041;-55
2021/11/21 03:55:06;;;;;;;26.73;11.60;;;;;;;;;;4983709;28;20177;-56
2021/11/21 03:57:32;;;;;;;29.77;11.98;;;;;;;;;;5007200;28;20050;-55
2021/11/21 03:59:59;;;;;;;29.52;12.13;;;;;;;;;;4982415;28;20172;-57
2021/11/21 04:02:27;;;;;;;37.97;13.07;;;;;;;;;;4992976;28;20042;-55
2021/11/21 04:04:53;;;;;;;29.47;12.70;;;;;;;;;;5004398;28;20118;-55
2021/11/21 04:07:20;;;;;;;30.10;11.60;;;;;;;;;;5004593;28;20353;-57
2021/11/21 04:09:49;;;;;;;34.33;12.65;;;;;;;;;;5024627;28;20037;-54
2021/11/21 04:12:16;;;;;;;35.50;13.20;;;;;;;;;;5014936;28;20042;-56
2021/11/21 04:14:43;;;;;;;35.45;13.73;;;;;;;;;;5022397;28;20160;-56
2021/11/21 04:17:09;;;;;;;29.83;13.48;;;;;;;;;;5011491;28;20073;-56
2021/11/21 04:19:37;;;;;;;31.20;11.82;;;;;;;;;;5008356;28;20038;-54
2021/11/21 04:22:04;;;;;;;26.65;11.85;;;;;;;;;;5000259;28;20031;-55
2021/11/21 04:24:31;;;;;;;30.05;12.70;;;;;;;;;;5022884;28;20057;-55
2021/11/21 04:26:57;;;;;;;30.10;11.55;;;;;;;;;;5002956;28;20045;-54
2021/11/21 04:29:26;;;;;;;36.60;12.93;;;;;;;;;;5008776;28;20042;-54
2021/11/21 04:31:54;;;;;;;28.67;12.48;;;;;;;;;;5005084;28;20065;-57
2021/11/21 04:34:21;;;;;;;37.95;13.85;;;;;;;;;;5022166;28;20061;-56
2021/11/21 04:36:49;;;;;;;27.77;11.57;;;;;;;;;;5030089;28;20041;-57
2021/11/21 04:39:21;;;;;;;30.63;11.53;;;;;;;;;;4987939;28;20050;-57
2021/11/21 04:41:47;;;;;;;26.20;11.00;;;;;;;;;;4989932;28;20272;-57
2021/11/21 04:44:14;;;;;;;25.05;11.52;;;;;;;;;;4987739;28;20120;-57
2021/11/21 04:46:40;;;;;;;23.27;9.50;;;;;;;;;;4987581;28;20117;-57
2021/11/21 04:49:11;;;;;;;20.30;9.70;;;;;;;;;;5012301;28;20119;-57
2021/11/21 04:51:38;;;;;;;20.75;9.13;;;;;;;;;;5044915;28;20048;-56
2021/11/21 04:54:12;;;;;;;20.65;8.30;;;;;;;;;;5038346;28;20119;-54
2021/11/21 04:56:38;;;;;;;18.73;8.05;;;;;;;;;;5006916;28;20061;-57
2021/11/21 04:59:07;;;;;;;20.42;7.57;;;;;;;;;;5005275;28;20036;-56
2021/11/21 05:01:33;;;;;;;17.23;7.43;;;;;;;;;;5006421;28;20045;-57
2021/11/21 05:04:00;;;;;;;16.38;6.50;;;;;;;;;;5020791;28;20048;-56
2021/11/21 05:06:27;;;;;;;17.58;7.93;;;;;;;;;;5005547;28;20046;-56
2021/11/21 05:09:10;;;;;;;17.30;7.57;;;;;;;;;;5002901;28;20041;-54
2021/11/21 05:11:37;;;;;;;17.88;7.00;;;;;;;;;;5004937;28;20037;-54
2021/11/21 05:14:04;;;;;;;14.20;5.90;;;;;;;;;;5024377;28;20033;-57
2021/11/21 05:16:33;;;;;;;13.50;5.85;;;;;;;;;;5027827;28;20037;-57
2021/11/21 05:19:01;;;;;;;12.77;5.75;;;;;;;;;;5039659;28;20060;-56
2021/11/21 05:21:28;;;;;;;13.93;5.95;;;;;;;;;;5043176;28;20037;-56
2021/11/21 05:23:54;;;;;;;12.82;5.50;;;;;;;;;;5040905;28;20068;-57
2021/11/21 05:26:24;;;;;;;11.07;5.00;;;;;;;;;;5043329;28;20069;-56
2021/11/21 05:28:52;;;;;;;13.13;5.18;;;;;;;;;;5026805;28;20061;-57
2021/11/21 05:31:19;;;;;;;12.95;5.75;;;;;;;;;;4999207;28;20048;-55
2021/11/21 05:33:46;;;;;;;14.45;6.13;;;;;;;;;;5015027;28;20063;-57
2021/11/21 05:36:12;;;;;;;14.73;5.80;;;;;;;;;;5021334;28;20037;-54
2021/11/21 05:38:41;;;;;;;14.27;6.15;;;;;;;;;;5044186;28;20041;-56
2021/11/21 05:41:08;;;;;;;12.23;4.82;;;;;;;;;;5021200;28;20042;-57
2021/11/21 05:43:36;;;;;;;13.73;5.95;;;;;;;;;;5003829;28;20035;-54
2021/11/21 05:46:02;;;;;;;15.95;5.45;;;;;;;;;;5003418;28;20046;-57
2021/11/21 05:48:33;;;;;;;14.75;6.15;;;;;;;;;;5024158;28;20038;-57
2021/11/21 05:51:00;;;;;;;11.02;4.72;;;;;;;;;;4997701;28;20038;-58
2021/11/21 05:53:27;;;;;;;10.98;4.07;;;;;;;;;;4984786;28;20035;-56
2021/11/21 05:55:53;;;;;;;12.88;5.55;;;;;;;;;;4988561;28;20038;-56
2021/11/21 05:58:23;;;;;;;10.20;4.35;;;;;;;;;;4992193;28;20046;-57
2021/11/21 06:00:51;;;;;;;12.13;4.07;;;;;;;;;;4993736;28;20045;-55
2021/11/21 06:03:17;;;;;;;8.63;3.73;;;;;;;;;;5042723;28;20116;-57
2021/11/21 06:05:45;;;;;;;9.57;3.67;;;;;;;;;;5018022;28;20038;-58
2021/11/21 06:08:11;;;;;;;9.35;4.07;;;;;;;;;;5005193;28;20041;-54
2021/11/21 06:10:40;;;;;;;9.43;3.47;;;;;;;;;;4997077;28;20050;-56
2021/11/21 06:13:06;;;;;;;;;;;;;;;;;;4991944;28;20034;-57
2021/11/21 06:15:33;;;;;;;11.27;2.85;;;;;;;;;;5003070;28;19914;-57
2021/11/21 06:18:01;;;;;;;8.45;3.53;;;;;;;;;;4999349;28;20038;-57
2021/11/21 06:20:29;;;;;;;11.33;3.77;;;;;;;;;;5003201;28;20057;-56
2021/11/21 06:22:56;;;;;;;9.52;3.75;;;;;;;;;;5004788;28;20247;-55
2021/11/21 06:25:23;;;;;;;10.23;4.35;;;;;;;;;;5010478;28;20038;-56
2021/11/21 06:27:49;;;;;;;7.68;3.00;;;;;;;;;;4992846;28;20045;-55
2021/11/21 06:30:17;;;;;;;11.48;4.50;;;;;;;;;;5017476;28;20034;-57
2021/11/21 06:32:44;;;;;;;10.47;3.70;;;;;;;;;;4993438;28;20067;-57
2021/11/21 06:35:12;;;;;;;6.25;2.67;;;;;;;;;;5004660;28;20395;-57
2021/11/21 06:37:39;;;;;;;9.52;3.50;;;;;;;;;;5007406;28;20073;-56
2021/11/21 06:40:06;;;;;;;9.02;3.63;;;;;;;;;;5013766;28;20084;-55
2021/11/21 06:42:32;;;;;;;6.95;2.80;;;;;;;;;;5016647;28;20128;-55
2021/11/21 06:44:59;;;;;;;7.97;2.50;;;;;;;;;;5019783;28;20045;-56
2021/11/21 06:47:25;;;;;;;9.15;3.20;;;;;;;;;;5006966;28;20041;-57
2021/11/21 06:49:53;;;;;;;11.68;4.15;;;;;;;;;;5019125;28;20041;-57
2021/11/21 06:52:22;;;;;;;10.63;4.63;;;;;;;;;;5003380;28;20038;-57
2021/11/21 06:54:49;;;;;;;9.65;3.75;;;;;;;;;;5018350;28;20038;-56
2021/11/21 06:57:15;;;;;;;7.97;3.20;;;;;;;;;;5004379;28;20065;-55
2021/11/21 06:59:42;;;;;;;13.50;4.13;;;;;;;;;;5031767;28;20052;-57
2021/11/21 07:02:09;;;;;;;10.05;4.28;;;;;;;;;;5006910;28;20099;-56
2021/11/21 07:04:35;;;;;;;8.32;4.07;;;;;;;;;;5003459;28;20093;-56
2021/11/21 07:07:02;;;;;;;8.65;3.17;;;;;;;;;;5011272;28;20038;-56
2021/11/21 07:09:30;;;;;;;8.18;2.50;;;;;;;;;;5005049;28;20045;-57
2021/11/21 07:11:56;;;;;;;7.05;2.30;;;;;;;;;;5006765;28;20062;-57
2021/11/21 07:14:23;;;;;;;5.78;2.25;;;;;;;;;;5003778;28;20078;-57
2021/11/21 07:16:49;;;;;;;11.27;2.25;;;;;;;;;;5006336;28;20033;-57
2021/11/21 07:19:16;;;;;;;4.88;2.10;;;;;;;;;;5015176;28;20033;-57
2021/11/21 07:21:44;;;;;;;5.95;2.20;;;;;;;;;;5008794;28;20124;-56
2021/11/21 07:24:10;;;;;;;4.47;1.73;;;;;;;;;;5011937;28;20086;-55
2021/11/21 07:26:39;;;;;;;5.60;1.80;;;;;;;;;;5009391;28;20045;-57
2021/11/21 07:29:12;;;;;;;6.28;2.30;;;;;;;;;;5022756;28;20062;-56
2021/11/21 07:31:38;;;;;;;8.20;2.33;;;;;;;;;;5028898;28;20049;-56
2021/11/21 07:34:05;;;;;;;6.78;2.33;;;;;;;;;;5016194;28;20071;-57
2021/11/21 07:36:31;;;;;;;7.50;2.92;;;;;;;;;;5004313;28;20116;-54
2021/11/21 07:38:59;;;;;;;2.83;1.52;;;;;;;;;;5012670;28;20061;-57
2021/11/21 07:41:26;;;;;;;11.17;2.80;;;;;;;;;;5016112;28;20068;-56
2021/11/21 07:43:54;;;;;;;5.70;1.80;;;;;;;;;;5015071;28;20123;-56
2021/11/21 07:46:22;;;;;;;8.13;2.30;;;;;;;;;;5016260;28;20074;-56
2021/11/21 07:48:49;;;;;;;;;;;;;;;;;;5012552;28;20038;-57
2021/11/21 07:51:15;;;;;;;5.05;1.67;;;;;;;;;;4989814;28;19952;-56
2021/11/21 07:53:42;;;;;;;6.60;2.47;;;;;;;;;;5011819;28;20057;-57
2021/11/21 07:56:08;;;;;;;4.13;1.73;;;;;;;;;;5011721;28;20045;-56
2021/11/21 07:58:37;;;;;;;4.90;1.50;;;;;;;;;;5004951;28;20067;-56
2021/11/21 08:01:05;;;;;;;6.63;2.60;;;;;;;;;;4998105;28;20060;-56
2021/11/21 08:03:32;;;;;;;7.45;3.10;;;;;;;;;;4997477;28;20100;-56
2021/11/21 08:05:58;;;;;;;9.18;2.20;;;;;;;;;;4988190;28;20038;-54
2021/11/21 08:08:26;;;;;;;5.20;1.45;;;;;;;;;;4994678;28;20453;-57
2021/11/21 08:10:52;;;;;;;8.07;1.83;;;;;;;;;;4990609;28;20043;-57
2021/11/21 08:13:19;;;;;;;6.43;1.52;;;;;;;;;;5017231;28;20058;-56
2021/11/21 08:15:47;;;;;;;4.72;1.10;;;;;;;;;;4991097;28;20022;-56
2021/11/21 08:18:15;;;;;;;6.40;1.20;;;;;;;;;;4990400;28;20045;-56
2021/11/21 08:20:42;;;;;;;6.07;1.40;;;;;;;;;;4992939;28;20037;-57
2021/11/21 08:23:09;;;;;;;6.60;2.28;;;;;;;;;;5013795;28;20140;-57
2021/11/21 08:25:35;;;;;;;11.68;2.25;;;;;;;;;;4996436;28;20061;-57
2021/11/21 08:28:02;;;;;;;6.38;1.70;;;;;;;;;;4992479;28;20049;-56
2021/11/21 08:30:30;;;;;;;6.72;2.10;;;;;;;;;;4996374;28;20052;-57
2021/11/21 08:32:57;;;;;;;4.65;1.27;;;;;;;;;;4988284;28;20053;-58
2021/11/21 08:35:25;;;;;;;7.03;2.45;;;;;;;;;;5010526;28;20065;-56
2021/11/21 08:37:51;;;;;;;8.82;1.73;;;;;;;;;;4992224;28;20037;-57
2021/11/21 08:40:18;;;;;;;9.38;1.35;;;;;;;;;;4990572;28;20081;-57
2021/11/21 08:42:45;;;;;;;3.42;1.00;;;;;;;;;;4998970;28;20069;-59
2021/11/21 08:45:11;;;;;;;6.97;0.90;;;;;;;;;;4988517;28;20058;-57
2021/11/21 08:47:40;;;;;;;11.90;1.15;;;;;;;;;;4990229;28;20153;-57
2021/11/21 08:50:09;;;;;;;6.68;1.48;;;;;;;;;;4999247;28;20037;-57
2021/11/21 08:52:36;;;;;;;;;;;;;;;;;;4993580;28;20053;-58
2021/11/21 08:55:04;;;;;;;7.88;1.00;;;;;;;;;;5002046;28;20029;-57
2021/11/21 08:57:31;;;;;;;7.75;1.00;;;;;;;;;;5012773;28;20059;-56
2021/11/21 08:59:58;;;;;;;9.13;1.30;;;;;;;;;;4976913;28;20068;-57
2021/11/21 09:02:25;;;;;;;5.00;1.08;;;;;;;;;;4974412;28;20037;-55
2021/11/21 09:04:51;;;;;;;5.25;1.98;;;;;;;;;;4998477;28;20086;-56
2021/11/21 09:07:18;;;;;;;5.00;1.02;;;;;;;;;;4994909;28;20035;-56
2021/11/21 09:09:45;;;;;;;6.28;1.42;;;;;;;;;;4982596;28;20062;-58
2021/11/21 09:12:13;;;;;;;5.63;1.05;;;;;;;;;;4985371;28;20035;-54
2021/11/21 09:14:39;;;;;;;4.50;1.60;;;;;;;;;;4994767;28;20052;-56
2021/11/21 09:17:06;;;;;;;7.53;1.58;;;;;;;;;;4987118;28;20552;-57
2021/11/21 09:19:33;;;;;;;7.07;1.50;;;;;;;;;;4988350;28;20052;-57
2021/11/21 09:21:59;;;;;;;5.45;1.00;;;;;;;;;;4995285;28;20046;-57
2021/11/21 09:24:26;;;;;;;6.18;1.25;;;;;;;;;;4990477;28;20073;-55
2021/11/21 09:26:52;;;;;;;8.75;1.13;;;;;;;;;;4993463;28;20042;-55
2021/11/21 09:29:24;;;;;;;4.13;1.63;;;;;;;;;;4983936;28;20058;-56
2021/11/21 09:31:51;;;;;;;5.00;1.20;;;;;;;;;;4987320;28;20045;-57
2021/11/21 09:34:18;;;;;;;9.88;1.20;;;;;;;;;;4988388;28;20054;-57
2021/11/21 09:36:46;;;;;;;9.23;1.45;;;;;;;;;;4986168;28;20038;-56
2021/11/21 09:39:14;;;;;;;5.55;1.80;;;;;;;;;;4984386;28;20034;-56
2021/11/21 09:41:40;;;;;;;3.63;1.10;;;;;;;;;;4986608;28;20070;-57
2021/11/21 09:44:07;;;;;;;14.70;2.85;;;;;;;;;;4982188;28;20045;-58
2021/11/21 09:46:37;;;;;;;6.68;2.33;;;;;;;;;;4985819;28;20031;-57
2021/11/21 09:49:05;;;;;;;7.40;2.33;;;;;;;;;;4985476;28;20062;-57
2021/11/21 09:51:32;;;;;;;12.82;1.70;;;;;;;;;;5003441;28;20061;-58
2021/11/21 09:53:59;;;;;;;3.42;1.13;;;;;;;;;;5004788;28;20038;-59
2021/11/21 09:56:25;;;;;;;8.95;1.70;;;;;;;;;;5002850;28;20037;-59
2021/11/21 09:58:52;;;;;;;6.07;1.48;;;;;;;;;;5021947;28;20044;-57
2021/11/21 10:01:31;;;;;;;7.00;1.33;;;;;;;;;;5003377;28;20042;-56
2021/11/21 10:04:00;;;;;;;5.07;0.95;;;;;;;;;;5020874;28;20073;-57
2021/11/21 10:06:30;;;;;;;4.38;1.60;;;;;;;;;;5002749;28;20046;-57
2021/11/21 10:08:57;;;;;;;9.27;1.50;;;;;;;;;;5022976;28;20129;-57
2021/11/21 10:11:24;;;;;;;6.10;1.45;;;;;;;;;;4999945;28;20069;-57
2021/11/21 10:13:54;;;;;;;6.68;1.80;;;;;;;;;;5006140;28;20041;-56
2021/11/21 10:16:23;;;;;;;5.97;1.77;;;;;;;;;;5014687;28;20101;-59
2021/11/21 10:18:53;;;;;;;12.82;1.40;;;;;;;;;;5029585;28;20048;-57
2021/11/21 10:21:23;;;;;;;7.65;1.42;;;;;;;;;;5034589;28;20048;-59
2021/11/21 10:23:50;;;;;;;3.97;1.27;;;;;;;;;;5040974;28;20048;-56
2021/11/21 10:26:21;;;;;;;13.80;3.55;;;;;;;;;;5019166;28;20038;-57
2021/11/21 10:28:48;;;;;;;12.50;3.45;;;;;;;;;;5009509;28;20030;-57
2021/11/21 10:31:16;;;;;;;10.05;2.20;;;;;;;;;;5002699;28;20143;-57
2021/11/21 10:33:43;;;;;;;10.50;1.90;;;;;;;;;;5009083;28;20049;-58
2021/11/21 10:36:12;;;;;;;10.48;1.23;;;;;;;;;;5022922;28;20070;-57
2021/11/21 10:38:43;;;;;;;6.75;1.38;;;;;;;;;;5010161;28;20046;-57
2021/11/21 10:41:11;;;;;;;5.22;0.95;;;;;;;;;;5006129;28;20037;-57
2021/11/21 10:43:43;;;;;;;7.28;1.30;;;;;;;;;;5010584;28;20042;-57
2021/11/21 10:46:20;;;;;;;5.13;1.17;;;;;;;;;;5028158;28;20038;-57
2021/11/21 10:48:48;;;;;;;7.20;1.27;;;;;;;;;;5024662;28;20107;-58
2021/11/21 10:51:18;;;;;;;8.07;1.50;;;;;;;;;;5009175;28;20045;-56
2021/11/21 10:53:46;;;;;;;3.78;0.85;;;;;;;;;;5005423;28;20042;-56
2021/11/21 10:56:13;;;;;;;5.65;1.73;;;;;;;;;;5007967;28;20062;-58
2021/11/21 10:58:51;;;;;;;5.07;0.98;;;;;;;;;;5005843;28;20049;-58
2021/11/21 11:01:22;;;;;;;5.05;1.00;;;;;;;;;;5006970;28;20055;-57
2021/11/21 11:04:08;;;;;;;6.18;1.30;;;;;;;;;;4985152;28;20039;-57
2021/11/21 11:06:35;;;;;;;7.80;1.20;;;;;;;;;;4985927;28;20032;-56
2021/11/21 11:09:16;;;;;;;9.65;1.60;;;;;;;;;;4986255;28;20065;-56
2021/11/21 11:11:43;;;;;;;11.27;1.30;;;;;;;;;;5005144;28;20086;-59
2021/11/21 11:14:10;;;;;;;6.65;1.20;;;;;;;;;;4990216;28;20085;-58
2021/11/21 11:16:37;;;;;;;2.40;0.95;;;;;;;;;;4985766;28;20045;-57
2021/11/21 11:19:05;;;;;;;4.00;0.90;;;;;;;;;;4974484;28;20046;-59
2021/11/21 11:21:32;;;;;;;3.05;0.70;;;;;;;;;;4969324;28;20042;-58
2021/11/21 11:23:59;;;;;;;5.50;0.82;;;;;;;;;;4991298;28;20078;-58
2021/11/21 11:26:27;;;;;;;7.15;0.95;;;;;;;;;;4969652;28;20079;-59
2021/11/21 11:28:59;;;;;;;5.72;0.88;;;;;;;;;;4973990;28;20054;-58
2021/11/21 11:31:27;;;;;;;3.33;0.77;;;;;;;;;;4988848;28;20045;-57
2021/11/21 11:33:54;;;;;;;5.72;0.70;;;;;;;;;;5005075;28;20119;-57
2021/11/21 11:36:21;;;;;;;9.43;0.93;;;;;;;;;;5009022;28;20050;-56
2021/11/21 11:38:58;;;;;;;5.38;0.73;;;;;;;;;;5001093;28;20042;-57
2021/11/21 11:41:29;;;;;;;9.50;0.88;;;;;;;;;;4989945;28;20046;-58
2021/11/21 11:43:56;;;;;;;3.92;0.75;;;;;;;;;;4985535;28;20117;-58
2021/11/21 11:46:25;;;;;;;2.05;0.68;;;;;;;;;;4989354;28;20034;-57
2021/11/21 11:48:53;;;;;;;7.50;0.93;;;;;;;;;;4987124;28;20038;-61
2021/11/21 11:51:20;;;;;;;;;;;;;;;;;;5024614;28;20107;-65
2021/11/21 11:53:47;;;;;;;3.75;0.77;;;;;;;;;;5024864;28;19935;-58
2021/11/21 11:56:20;;;;;;;3.63;0.73;;;;;;;;;;4986084;28;20034;-57
2021/11/21 11:58:58;;;;;;;6.22;0.90;;;;;;;;;;4989513;28;20042;-58
2021/11/21 12:01:43;;;;;;;4.70;0.68;;;;;;;;;;4967381;28;20057;-56
2021/11/21 12:04:30;;;;;;;8.95;0.98;;;;;;;;;;4989331;28;20038;-58
2021/11/21 12:06:57;;;;;;;2.60;0.60;;;;;;;;;;4986697;28;20046;-56
2021/11/21 12:09:31;;;;;;;8.55;0.65;;;;;;;;;;4987662;28;20065;-58
2021/11/21 12:12:00;;;;;;;5.45;0.90;;;;;;;;;;5034116;28;20046;-58
2021/11/21 12:14:28;;;;;;;10.13;1.13;;;;;;;;;;5005829;28;20034;-59
2021/11/21 12:16:55;;;;;;;;;;;;;;;;;;5038076;28;20041;-59
2021/11/21 12:19:36;;;;;;;3.45;0.50;;;;;;;;;;5026135;28;19925;-59
2021/11/21 12:22:03;;;;;;;6.38;0.73;;;;;;;;;;5011387;28;20092;-59
2021/11/21 12:24:30;;;;;;;6.15;0.93;;;;;;;;;;5043421;28;20045;-60
2021/11/21 12:26:57;;;;;;;8.82;0.95;;;;;;;;;;5022520;28;20088;-60
2021/11/21 12:29:33;;;;;;;4.65;0.85;;;;;;;;;;5045562;28;20046;-59
2021/11/21 12:32:19;;;;;;;4.32;0.77;;;;;;;;;;5009802;28;20045;-59
2021/11/21 12:34:48;;;;;;;7.63;0.88;;;;;;;;;;5008186;28;20038;-59
2021/11/21 12:37:16;;;;;;;6.18;0.80;;;;;;;;;;5002768;28;20108;-59
2021/11/21 12:39:45;;;;;;;2.03;0.65;;;;;;;;;;5008615;28;20034;-59
2021/11/21 12:42:12;;;;;;;5.05;0.80;;;;;;;;;;5002129;28;20038;-58
2021/11/21 12:44:40;;;;;;;3.83;0.65;;;;;;;;;;5006939;28;20030;-59
2021/11/21 12:47:09;;;;;;;1.00;0.32;;;;;;;;;;5012497;28;20034;-60
2021/11/21 12:49:37;;;;;;;5.82;0.88;;;;;;;;;;5001708;28;20046;-59
2021/11/21 12:52:05;;;;;;;1.48;0.50;;;;;;;;;;4992050;28;20049;-59
2021/11/21 12:54:31;;;;;;;3.10;0.57;;;;;;;;;;5007441;28;20045;-58
2021/11/21 12:56:58;;;;;;;6.93;0.82;;;;;;;;;;5000956;28;20083;-57
2021/11/21 12:59:40;;;;;;;4.95;0.52;;;;;;;;;;5004882;28;20108;-58
2021/11/21 13:02:08;;;;;;;6.20;0.95;;;;;;;;;;4991817;28;20049;-60
2021/11/21 13:04:46;;;;;;;8.10;0.50;;;;;;;;;;4988048;28;20066;-59
2021/11/21 13:07:22;;;;;;;5.05;0.57;;;;;;;;;;4985541;28;20042;-58
2021/11/21 13:09:56;;;;;;;3.38;0.50;;;;;;;;;;5006760;28;20045;-58
2021/11/21 13:12:25;;;;;;;4.05;0.57;;;;;;;;;;4999133;28;20131;-59
2021/11/21 13:14:55;;;;;;;3.40;0.70;;;;;;;;;;4988468;28;20057;-59
2021/11/21 13:17:23;;;;;;;2.70;0.45;;;;;;;;;;4983516;28;20124;-56
2021/11/21 13:20:09;;;;;;;6.30;0.83;;;;;;;;;;4988094;28;20136;-59
2021/11/21 13:23:03;;;;;;;3.22;0.65;;;;;;;;;;5002468;28;20038;-59
2021/11/21 13:25:34;;;;;;;3.88;0.80;;;;;;;;;;4995466;28;20037;-60
2021/11/21 13:28:20;;;;;;;4.80;0.60;;;;;;;;;;5003533;28;20062;-58
2021/11/21 13:30:51;;;;;;;4.22;0.77;;;;;;;;;;5023582;28;20045;-60
2021/11/21 13:33:25;;;;;;;3.25;0.50;;;;;;;;;;4993266;28;20036;-61
2021/11/21 13:35:54;;;;;;;4.53;0.70;;;;;;;;;;5022280;28;20038;-60
2021/11/21 13:38:22;;;;;;;4.95;0.60;;;;;;;;;;5001842;28;20030;-59
2021/11/21 13:40:49;;;;;;;4.28;0.50;;;;;;;;;;4986688;28;20049;-58
2021/11/21 13:43:16;;;;;;;0.57;0.38;;;;;;;;;;4985681;28;20058;-59
2021/11/21 13:45:43;;;;;;;5.88;0.65;;;;;;;;;;5005404;28;20034;-56
2021/11/21 13:48:26;;;;;;;5.03;0.93;;;;;;;;;;4988285;28;20041;-58
2021/11/21 13:50:54;;;;;;;15.35;1.10;;;;;;;;;;4986198;28;20046;-54
2021/11/21 13:53:21;;;;;;;3.37;0.43;;;;;;;;;;4989862;28;20054;-55
2021/11/21 13:55:47;;;;;;;8.30;0.90;;;;;;;;;;5005942;28;20064;-60
2021/11/21 13:58:25;;;;;;;6.20;0.80;;;;;;;;;;5008558;28;20034;-61
2021/11/21 14:01:05;;;;;;;2.45;0.52;;;;;;;;;;4989527;28;20104;-61
2021/11/21 14:03:36;;;;;;;4.82;0.50;;;;;;;;;;4987167;28;20075;-57
2021/11/21 14:06:09;;;;;;;5.30;0.60;;;;;;;;;;4987044;28;20034;-58
2021/11/21 14:08:41;;;;;;;2.92;0.80;;;;;;;;;;4989966;28;20145;-60
2021/11/21 14:11:08;;;;;;;1.52;0.30;;;;;;;;;;4987116;28;20131;-62
2021/11/21 14:13:39;;;;;;;2.92;0.50;;;;;;;;;;5006455;28;20045;-62
2021/11/21 14:16:06;;;;;;;6.13;1.15;;;;;;;;;;5006106;28;20048;-57
2021/11/21 14:18:36;;;;;;;6.78;0.90;;;;;;;;;;5006928;28;20077;-57
2021/11/21 14:21:04;;;;;;;4.05;0.52;;;;;;;;;;5005604;28;20049;-56
2021/11/21 14:23:32;;;;;;;4.63;0.50;;;;;;;;;;5008535;28;20046;-60
2021/11/21 14:26:02;;;;;;;6.25;0.75;;;;;;;;;;5006138;28;20378;-61
2021/11/21 14:28:35;;;;;;;3.40;0.47;;;;;;;;;;5009038;28;20041;-60
2021/11/21 14:31:05;;;;;;;2.80;0.60;;;;;;;;;;4998244;28;20046;-55
2021/11/21 14:33:33;;;;;;;7.35;1.75;;;;;;;;;;5012203;28;20042;-55
2021/11/21 14:36:00;;;;;;;2.70;0.63;;;;;;;;;;5000100;28;20030;-55
2021/11/21 14:38:30;;;;;;;5.07;1.02;;;;;;;;;;4990035;28;20058;-60
2021/11/21 14:41:02;;;;;;;4.55;0.93;;;;;;;;;;4990124;28;20052;-62
2021/11/21 14:43:29;;;;;;;5.88;0.55;;;;;;;;;;5008352;28;20087;-57